createdAt,value
2019-01-28T00:01:15.999Z,5.10
2019-01-28T00:03:44.326Z,5.10
2019-01-28T00:06:12.139Z,5.10
2019-01-28T00:08:40.284Z,5.20
2019-01-28T00:11:08.155Z,5.20
2019-01-28T00:13:35.993Z,5.10
2019-01-28T00:16:03.891Z,5.10
2019-01-28T00:18:31.970Z,5.10
2019-01-28T00:20:59.766Z,5.10
2019-01-28T00:23:27.638Z,5.10
2019-01-28T00:25:55.412Z,5.10
2019-01-28T00:28:23.279Z,5.20
2019-01-28T00:30:51.451Z,5.10
2019-01-28T00:33:19.395Z,5.20
2019-01-28T00:35:47.269Z,5.20
2019-01-28T00:38:15.146Z,5.10
2019-01-28T00:40:43.090Z,5.20
2019-01-28T00:43:11.247Z,5.20
2019-01-28T00:45:39.319Z,5.20
2019-01-28T00:48:07.131Z,5.20
2019-01-28T00:50:35.374Z,5.10
2019-01-28T00:53:03.450Z,5.10
2019-01-28T00:55:31.398Z,5.10
2019-01-28T00:57:59.223Z,5.10
2019-01-28T01:00:27.138Z,5.10
2019-01-28T01:02:54.942Z,5.00
2019-01-28T01:05:22.810Z,5.00
2019-01-28T01:07:50.758Z,5.00
2019-01-28T01:10:19.723Z,5.00
2019-01-28T01:12:47.524Z,5.00
2019-01-28T01:15:15.555Z,5.00
2019-01-28T01:17:43.870Z,5.00
2019-01-28T01:20:12.622Z,5.00
2019-01-28T01:22:40.445Z,5.00
2019-01-28T01:25:08.664Z,5.00
2019-01-28T01:27:36.564Z,5.00
2019-01-28T01:30:05.279Z,5.00
2019-01-28T01:32:33.154Z,5.00
2019-01-28T01:35:01.002Z,5.00
2019-01-28T01:37:29.378Z,5.00
2019-01-28T01:39:57.318Z,5.00
2019-01-28T01:42:25.138Z,5.00
2019-01-28T01:44:52.987Z,4.90
2019-01-28T01:47:20.868Z,4.90
2019-01-28T01:49:48.716Z,4.80
2019-01-28T01:52:16.598Z,4.80
2019-01-28T01:54:44.446Z,4.80
2019-01-28T01:57:12.602Z,4.80
2019-01-28T01:59:40.748Z,4.80
2019-01-28T02:02:08.585Z,4.70
2019-01-28T02:04:36.442Z,4.80
2019-01-28T02:07:04.474Z,4.80
2019-01-28T02:09:32.323Z,4.80
2019-01-28T02:12:00.154Z,4.80
2019-01-28T02:14:28.014Z,4.80
2019-01-28T02:16:55.874Z,4.80
2019-01-28T02:19:24.146Z,4.80
2019-01-28T02:21:52.086Z,4.80
2019-01-28T02:24:19.969Z,4.80
2019-01-28T02:26:47.775Z,4.80
2019-01-28T02:29:15.647Z,4.80
2019-01-28T02:31:43.491Z,4.80
2019-01-28T02:34:11.371Z,4.80
2019-01-28T02:36:39.224Z,4.80
2019-01-28T02:39:07.525Z,4.80
2019-01-28T02:41:35.355Z,4.80
2019-01-28T02:44:03.423Z,4.80
2019-01-28T02:46:31.311Z,4.90
2019-01-28T02:48:59.091Z,4.80
2019-01-28T02:51:26.953Z,4.80
2019-01-28T02:53:54.811Z,4.80
2019-01-28T02:56:22.799Z,4.80
2019-01-28T02:58:50.671Z,4.80
2019-01-28T03:01:18.464Z,4.70
2019-01-28T03:03:46.290Z,4.70
2019-01-28T03:06:14.215Z,4.70
2019-01-28T03:08:42.043Z,4.70
2019-01-28T03:11:10.538Z,4.60
2019-01-28T03:13:38.343Z,4.60
2019-01-28T03:16:06.206Z,4.60
2019-01-28T03:18:34.171Z,4.50
2019-01-28T03:21:02.324Z,4.50
2019-01-28T03:23:30.215Z,4.40
2019-01-28T03:25:58.100Z,4.40
2019-01-28T03:28:25.978Z,4.40
2019-01-28T03:30:53.782Z,4.30
2019-01-28T03:33:21.621Z,4.30
2019-01-28T03:35:49.646Z,4.20
2019-01-28T03:38:17.418Z,4.20
2019-01-28T03:40:45.478Z,4.10
2019-01-28T03:43:13.296Z,4.10
2019-01-28T03:45:41.196Z,4.00
2019-01-28T03:48:09.110Z,4.00
2019-01-28T03:50:36.893Z,4.00
2019-01-28T03:53:04.741Z,3.90
2019-01-28T03:55:32.519Z,4.00
2019-01-28T03:58:00.287Z,3.90
2019-01-28T04:00:28.160Z,3.90
2019-01-28T04:02:55.925Z,3.80
2019-01-28T04:05:24.180Z,3.80
2019-01-28T04:07:52.050Z,3.80
2019-01-28T04:10:20.884Z,3.70
2019-01-28T04:12:48.776Z,3.70
2019-01-28T04:15:17.415Z,3.70
2019-01-28T04:17:45.245Z,3.60
2019-01-28T04:20:13.804Z,3.60
2019-01-28T04:22:41.601Z,3.60
2019-01-28T04:25:10.010Z,3.50
2019-01-28T04:27:37.793Z,3.50
2019-01-28T04:30:07.638Z,3.40
2019-01-28T04:32:35.612Z,3.40
2019-01-28T04:35:04.159Z,3.30
2019-01-28T04:37:31.918Z,3.30
2019-01-28T04:39:59.813Z,3.20
2019-01-28T04:42:27.722Z,3.20
2019-01-28T04:44:55.683Z,3.10
2019-01-28T04:47:23.450Z,3.10
2019-01-28T04:49:51.239Z,3.10
2019-01-28T04:52:19.006Z,3.10
2019-01-28T04:54:46.786Z,3.10
2019-01-28T04:57:14.576Z,3.10
2019-01-28T04:59:42.393Z,3.20
2019-01-28T05:02:10.157Z,3.20
2019-01-28T05:04:38.031Z,3.20
2019-01-28T05:07:05.884Z,3.10
2019-01-28T05:09:33.685Z,3.10
2019-01-28T05:12:01.450Z,3.10
2019-01-28T05:14:29.248Z,3.10
2019-01-28T05:16:57.028Z,3.10
2019-01-28T05:19:24.928Z,3.10
2019-01-28T05:21:52.700Z,3.20
2019-01-28T05:24:20.539Z,3.20
2019-01-28T05:26:48.445Z,3.20
2019-01-28T05:29:16.279Z,3.20
2019-01-28T05:31:44.160Z,3.30
2019-01-28T05:34:11.996Z,3.20
2019-01-28T05:36:39.789Z,3.30
2019-01-28T05:39:08.572Z,3.30
2019-01-28T05:41:36.446Z,3.30
2019-01-28T05:44:05.086Z,3.30
2019-01-28T05:46:32.879Z,3.30
2019-01-28T05:49:00.736Z,3.30
2019-01-28T05:51:28.526Z,3.30
2019-01-28T05:53:56.369Z,3.20
2019-01-28T05:56:24.149Z,3.10
2019-01-28T05:58:51.916Z,3.10
2019-01-28T06:01:19.814Z,3.00
2019-01-28T06:03:47.640Z,3.00
2019-01-28T06:06:15.504Z,2.80
2019-01-28T06:08:43.308Z,2.80
2019-01-28T06:11:11.155Z,2.70
2019-01-28T06:13:38.996Z,2.70
2019-01-28T06:16:06.787Z,2.60
2019-01-28T06:18:34.706Z,2.60
2019-01-28T06:21:02.491Z,2.60
2019-01-28T06:23:30.267Z,2.60
2019-01-28T06:25:58.233Z,2.60
2019-01-28T06:28:25.998Z,2.60
2019-01-28T06:30:53.896Z,2.60
2019-01-28T06:33:21.826Z,2.50
2019-01-28T06:35:49.620Z,2.50
2019-01-28T06:38:17.441Z,2.50
2019-01-28T06:40:45.261Z,2.50
2019-01-28T06:43:13.028Z,2.50
2019-01-28T06:45:40.919Z,2.50
2019-01-28T06:48:08.750Z,2.50
2019-01-28T06:50:36.815Z,2.50
2019-01-28T06:53:05.025Z,2.50
2019-01-28T06:55:32.815Z,2.40
2019-01-28T06:58:00.622Z,2.40
2019-01-28T07:00:29.555Z,2.40
2019-01-28T07:02:57.697Z,2.30
2019-01-28T07:05:25.639Z,2.30
2019-01-28T07:07:53.520Z,2.20
2019-01-28T07:10:21.400Z,2.20
2019-01-28T07:12:49.345Z,2.20
2019-01-28T07:15:17.524Z,2.20
2019-01-28T07:17:45.297Z,2.10
2019-01-28T07:20:14.623Z,2.10
2019-01-28T07:22:42.498Z,2.10
2019-01-28T07:25:10.497Z,2.10
2019-01-28T07:27:38.411Z,2.10
2019-01-28T07:30:06.913Z,2.10
2019-01-28T07:32:34.765Z,2.10
2019-01-28T07:35:02.546Z,2.10
2019-01-28T07:37:30.436Z,2.10
2019-01-28T07:39:58.304Z,2.20
2019-01-28T07:42:26.102Z,2.20
2019-01-28T07:44:53.950Z,2.20
2019-01-28T07:47:21.962Z,2.30
2019-01-28T07:49:50.243Z,2.30
2019-01-28T07:52:18.132Z,2.40
2019-01-28T07:54:45.987Z,2.40
2019-01-28T07:57:13.829Z,2.40
2019-01-28T07:59:41.697Z,2.50
2019-01-28T08:02:09.599Z,2.50
2019-01-28T08:04:37.965Z,2.60
2019-01-28T08:07:06.024Z,2.60
2019-01-28T08:09:33.785Z,2.70
2019-01-28T08:12:01.583Z,2.80
2019-01-28T08:14:29.432Z,2.80
2019-01-28T08:16:57.272Z,2.90
2019-01-28T08:19:25.110Z,3.00
2019-01-28T08:21:52.896Z,3.10
2019-01-28T08:24:20.693Z,3.10
2019-01-28T08:26:48.493Z,3.10
2019-01-28T08:29:16.299Z,3.10
2019-01-28T08:31:44.114Z,3.00
2019-01-28T08:34:11.888Z,3.00
2019-01-28T08:36:39.661Z,3.10
2019-01-28T08:39:08.321Z,3.10
2019-01-28T08:41:36.127Z,3.20
2019-01-28T08:44:03.966Z,3.20
2019-01-28T08:46:31.749Z,3.20
2019-01-28T08:48:59.575Z,3.30
2019-01-28T08:51:27.368Z,3.30
2019-01-28T08:53:55.191Z,3.30
2019-01-28T08:56:23.437Z,3.30
2019-01-28T08:58:51.333Z,3.40
2019-01-28T09:01:19.139Z,3.50
2019-01-28T09:03:46.912Z,3.70
2019-01-28T09:06:14.780Z,3.70
2019-01-28T09:08:42.638Z,3.80
2019-01-28T09:11:10.431Z,3.90
2019-01-28T09:13:38.207Z,4.00
2019-01-28T09:16:06.121Z,4.00
2019-01-28T09:18:33.986Z,4.10
2019-01-28T09:21:01.771Z,4.20
2019-01-28T09:23:29.533Z,4.30
2019-01-28T09:25:57.320Z,4.30
2019-01-28T09:28:25.083Z,4.30
2019-01-28T09:30:52.918Z,4.30
2019-01-28T09:33:20.723Z,4.40
2019-01-28T09:35:48.540Z,4.40
2019-01-28T09:38:16.406Z,4.40
2019-01-28T09:40:44.170Z,4.50
2019-01-28T09:43:11.972Z,4.60
2019-01-28T09:45:40.631Z,4.60
2019-01-28T09:48:09.462Z,4.60
2019-01-28T09:50:37.327Z,4.60
2019-01-28T09:53:05.177Z,4.70
2019-01-28T09:55:32.955Z,4.80
2019-01-28T09:58:00.821Z,4.80
2019-01-28T10:00:30.185Z,4.80
2019-01-28T10:02:58.146Z,4.80
2019-01-28T10:05:26.238Z,4.80
2019-01-28T10:07:54.035Z,4.90
2019-01-28T10:10:22.025Z,4.90
2019-01-28T10:12:49.846Z,4.90
2019-01-28T10:15:18.208Z,5.00
2019-01-28T10:17:45.981Z,5.10
2019-01-28T10:20:15.789Z,5.10
2019-01-28T10:22:43.596Z,5.20
2019-01-28T10:25:11.437Z,5.30
2019-01-28T10:27:39.404Z,5.40
2019-01-28T10:30:07.947Z,5.40
2019-01-28T10:32:36.326Z,5.30
2019-01-28T10:35:04.640Z,5.40
2019-01-28T10:37:32.449Z,5.40
2019-01-28T10:40:00.292Z,5.50
2019-01-28T10:42:28.137Z,5.60
2019-01-28T10:44:56.004Z,5.60
2019-01-28T10:47:23.808Z,5.70
2019-01-28T10:49:51.587Z,5.70
2019-01-28T10:52:19.376Z,5.60
2019-01-28T10:54:47.331Z,5.70
2019-01-28T10:57:15.146Z,5.70
2019-01-28T10:59:42.910Z,5.80
2019-01-28T11:02:10.748Z,5.90
2019-01-28T11:04:38.529Z,5.80
2019-01-28T11:07:06.407Z,5.90
2019-01-28T11:09:34.212Z,5.90
2019-01-28T11:12:02.032Z,6.00
2019-01-28T11:14:29.983Z,6.00
2019-01-28T11:16:57.890Z,6.00
2019-01-28T11:19:25.727Z,6.00
2019-01-28T11:21:53.610Z,6.00
2019-01-28T11:24:21.569Z,6.00
2019-01-28T11:26:49.454Z,6.00
2019-01-28T11:29:17.402Z,6.00
2019-01-28T11:31:45.354Z,5.90
2019-01-28T11:34:13.246Z,5.90
2019-01-28T11:36:41.105Z,5.90
2019-01-28T11:39:09.844Z,6.00
2019-01-28T11:41:37.985Z,6.10
2019-01-28T11:44:05.926Z,6.20
2019-01-28T11:46:33.704Z,6.10
2019-01-28T11:49:05.986Z,6.00
2019-01-28T11:51:31.162Z,6.00
2019-01-28T11:53:59.049Z,6.00
2019-01-28T11:56:26.885Z,6.00
2019-01-28T11:58:54.678Z,6.00
2019-01-28T12:01:32.404Z,6.00
2019-01-28T12:04:00.245Z,6.00
2019-01-28T12:06:28.188Z,6.10
2019-01-28T12:08:55.995Z,6.20
2019-01-28T12:11:24.221Z,6.30
2019-01-28T12:13:52.080Z,6.30
2019-01-28T12:16:21.141Z,6.30
2019-01-28T12:18:48.949Z,6.30
2019-01-28T12:21:16.702Z,6.30
2019-01-28T12:23:44.528Z,6.30
2019-01-28T12:26:12.288Z,6.30
2019-01-28T12:28:40.097Z,6.30
2019-01-28T12:31:07.871Z,6.30
2019-01-28T12:33:35.663Z,6.40
2019-01-28T12:36:03.605Z,6.30
2019-01-28T12:38:31.410Z,6.30
2019-01-28T12:40:59.187Z,6.30
2019-01-28T12:43:27.051Z,6.30
2019-01-28T12:45:54.818Z,6.50
2019-01-28T12:48:23.162Z,6.60
2019-01-28T12:50:51.255Z,6.80
2019-01-28T12:53:19.148Z,6.90
2019-01-28T12:55:46.914Z,7.10
2019-01-28T12:58:14.727Z,7.30
2019-01-28T13:00:45.869Z,7.40
2019-01-28T13:03:13.974Z,7.30
2019-01-28T13:05:42.018Z,7.20
2019-01-28T13:08:09.811Z,7.20
2019-01-28T13:10:37.887Z,7.10
2019-01-28T13:13:05.733Z,7.00
2019-01-28T13:15:33.544Z,6.70
2019-01-28T13:18:01.502Z,6.50
2019-01-28T13:20:29.393Z,6.50
2019-01-28T13:22:57.161Z,6.60
2019-01-28T13:25:25.538Z,6.60
2019-01-28T13:27:53.316Z,6.60
2019-01-28T13:30:22.553Z,6.70
2019-01-28T13:32:50.643Z,6.70
2019-01-28T13:35:18.725Z,6.60
2019-01-28T13:37:46.584Z,6.60
2019-01-28T13:40:14.687Z,6.50
2019-01-28T13:42:42.536Z,6.50
2019-01-28T13:45:11.141Z,6.60
2019-01-28T13:47:39.048Z,6.60
2019-01-28T13:50:08.317Z,6.60
2019-01-28T13:52:36.138Z,6.60
2019-01-28T13:55:04.351Z,6.60
2019-01-28T13:57:32.147Z,6.60
2019-01-28T14:00:00.306Z,6.50
2019-01-28T14:02:28.112Z,6.50
2019-01-28T14:04:56.005Z,6.40
2019-01-28T14:07:23.846Z,6.40
2019-01-28T14:09:51.643Z,6.40
2019-01-28T14:12:19.405Z,6.30
2019-01-28T14:14:47.288Z,6.10
2019-01-28T14:17:15.097Z,6.00
2019-01-28T14:19:46.438Z,5.90
2019-01-28T14:22:12.499Z,5.80
2019-01-28T14:24:40.356Z,5.80
2019-01-28T14:27:08.233Z,5.80
2019-01-28T14:29:36.135Z,5.80
2019-01-28T14:32:03.975Z,5.80
2019-01-28T14:34:31.845Z,5.80
2019-01-28T14:36:59.653Z,5.70
2019-01-28T14:39:27.493Z,5.70
2019-01-28T14:41:55.305Z,5.70
2019-01-28T14:44:23.223Z,5.70
2019-01-28T14:46:51.062Z,5.70
2019-01-28T14:49:19.011Z,5.70
2019-01-28T14:51:46.881Z,5.70
2019-01-28T14:54:14.742Z,5.70
2019-01-28T14:56:42.664Z,5.80
2019-01-28T14:59:11.363Z,5.80
2019-01-28T15:01:39.260Z,5.80
2019-01-28T15:04:09.796Z,5.90
2019-01-28T15:06:36.751Z,5.90
2019-01-28T15:09:08.761Z,5.90
2019-01-28T15:11:36.733Z,5.90
2019-01-28T15:14:04.540Z,5.80
2019-01-28T15:16:32.358Z,5.80
2019-01-28T15:19:00.183Z,5.70
2019-01-28T15:21:28.002Z,5.70
2019-01-28T15:23:55.825Z,5.60
2019-01-28T15:26:23.759Z,5.60
2019-01-28T15:28:51.924Z,5.60
2019-01-28T15:31:19.770Z,5.60
2019-01-28T15:33:47.561Z,5.50
2019-01-28T15:36:15.402Z,5.50
2019-01-28T15:38:43.193Z,5.40
2019-01-28T15:41:10.996Z,5.40
2019-01-28T15:43:38.761Z,5.30
2019-01-28T15:46:06.738Z,5.20
2019-01-28T15:48:34.590Z,5.10
2019-01-28T15:51:02.667Z,5.10
2019-01-28T15:53:30.443Z,5.00
2019-01-28T15:55:58.261Z,5.00
2019-01-28T15:58:26.065Z,4.90
2019-01-28T16:00:53.892Z,4.90
2019-01-28T16:03:22.036Z,4.90
2019-01-28T16:05:49.909Z,4.90
2019-01-28T16:08:17.700Z,4.90
2019-01-28T16:10:45.515Z,4.90
2019-01-28T16:13:13.299Z,4.80
2019-01-28T16:15:42.444Z,4.70
2019-01-28T16:18:10.799Z,4.60
2019-01-28T16:20:39.056Z,4.60
2019-01-28T16:23:07.347Z,4.50
2019-01-28T16:25:35.130Z,4.40
2019-01-28T16:28:03.024Z,4.30
2019-01-28T16:30:31.554Z,4.30
2019-01-28T16:32:59.401Z,4.20
2019-01-28T16:35:27.414Z,4.30
2019-01-28T16:37:55.221Z,4.30
2019-01-28T16:40:23.709Z,4.20
2019-01-28T16:42:51.903Z,4.10
2019-01-28T16:45:19.746Z,4.10
2019-01-28T16:47:47.604Z,4.10
2019-01-28T16:50:17.101Z,4.00
2019-01-28T16:52:44.929Z,4.00
2019-01-28T16:55:13.226Z,4.00
2019-01-28T16:57:41.079Z,4.00
2019-01-28T17:00:12.068Z,4.00
2019-01-28T17:02:40.061Z,4.00
2019-01-28T17:05:08.603Z,3.90
2019-01-28T17:07:36.527Z,3.90
2019-01-28T17:10:05.405Z,3.80
2019-01-28T17:12:33.288Z,3.80
2019-01-28T17:15:01.057Z,3.70
2019-01-28T17:17:28.934Z,3.70
2019-01-28T17:19:56.716Z,3.70
2019-01-28T17:22:24.604Z,3.70
2019-01-28T17:24:52.487Z,3.70
2019-01-28T17:27:20.408Z,3.70
2019-01-28T17:29:48.230Z,3.70
2019-01-28T17:32:16.118Z,3.70
2019-01-28T17:34:43.889Z,3.70
2019-01-28T17:37:11.826Z,3.70
2019-01-28T17:39:39.572Z,3.60
2019-01-28T17:42:07.497Z,3.70
2019-01-28T17:44:35.337Z,3.60
2019-01-28T17:47:03.163Z,3.70
2019-01-28T17:49:30.987Z,3.70
2019-01-28T17:51:58.802Z,3.70
2019-01-28T17:54:26.627Z,3.70
2019-01-28T17:56:54.408Z,3.70
2019-01-28T17:59:22.556Z,3.70
2019-01-28T18:01:50.326Z,3.70
2019-01-28T18:04:18.459Z,3.70
2019-01-28T18:06:46.234Z,3.70
2019-01-28T18:09:14.126Z,3.60
2019-01-28T18:11:41.887Z,3.60
2019-01-28T18:14:09.711Z,3.60
2019-01-28T18:16:37.482Z,3.60
2019-01-28T18:19:05.399Z,3.60
2019-01-28T18:21:33.166Z,3.70
2019-01-28T18:24:01.120Z,3.70
2019-01-28T18:26:28.956Z,3.70
2019-01-28T18:28:56.788Z,3.70
2019-01-28T18:31:24.570Z,3.60
2019-01-28T18:33:52.380Z,3.60
2019-01-28T18:36:20.230Z,3.60
2019-01-28T18:38:48.051Z,3.60
2019-01-28T18:41:15.844Z,3.60
2019-01-28T18:43:43.775Z,3.60
2019-01-28T18:46:11.582Z,3.60
2019-01-28T18:48:39.469Z,3.60
2019-01-28T18:51:07.325Z,3.60
2019-01-28T18:53:35.137Z,3.60
2019-01-28T18:56:02.960Z,3.50
2019-01-28T18:58:30.778Z,3.50
2019-01-28T19:00:58.560Z,3.40
2019-01-28T19:03:26.463Z,3.40
2019-01-28T19:06:01.488Z,3.40
2019-01-28T19:08:40.042Z,3.40
2019-01-28T19:11:13.393Z,3.50
2019-01-28T19:13:58.267Z,3.50
2019-01-28T19:16:42.917Z,3.50
2019-01-28T19:19:18.784Z,3.40
2019-01-28T19:21:52.828Z,3.50
2019-01-28T19:24:20.641Z,3.40
2019-01-28T19:26:48.526Z,3.50
2019-01-28T19:29:16.509Z,3.40
2019-01-28T19:31:44.378Z,3.50
2019-01-28T19:34:12.193Z,3.50
2019-01-28T19:36:41.605Z,3.50
2019-01-28T19:39:09.680Z,3.50
2019-01-28T19:41:37.496Z,3.50
2019-01-28T19:44:10.423Z,3.50
2019-01-28T19:46:38.222Z,3.50
2019-01-28T19:49:06.218Z,3.40
2019-01-28T19:51:34.054Z,3.40
2019-01-28T19:54:01.977Z,3.40
2019-01-28T19:56:29.815Z,3.30
2019-01-28T19:58:57.704Z,3.30
2019-01-28T20:01:25.582Z,3.30
2019-01-28T20:03:53.401Z,3.30
2019-01-28T20:06:21.314Z,3.20
2019-01-28T20:08:49.147Z,3.20
2019-01-28T20:11:17.135Z,3.10
2019-01-28T20:13:44.919Z,3.10
2019-01-28T20:16:12.799Z,3.00
2019-01-28T20:18:40.623Z,3.00
2019-01-28T20:21:08.457Z,3.00
2019-01-28T20:23:36.284Z,3.10
2019-01-28T20:26:04.227Z,3.10
2019-01-28T20:28:32.093Z,3.10
2019-01-28T20:31:00.092Z,3.10
2019-01-28T20:33:27.875Z,3.10
2019-01-28T20:35:56.004Z,3.10
2019-01-28T20:38:23.875Z,3.10
2019-01-28T20:40:51.705Z,3.10
2019-01-28T20:43:24.167Z,3.10
2019-01-28T20:45:49.159Z,3.10
2019-01-28T20:48:16.938Z,3.00
2019-01-28T20:50:44.920Z,3.10
2019-01-28T20:53:12.695Z,3.10
2019-01-28T20:55:40.618Z,3.10
2019-01-28T20:58:08.454Z,3.20
2019-01-28T21:00:36.372Z,3.10
2019-01-28T21:03:04.272Z,3.20
2019-01-28T21:05:32.174Z,3.20
2019-01-28T21:07:59.996Z,3.20
2019-01-28T21:10:27.834Z,3.20
2019-01-28T21:12:55.631Z,3.20
2019-01-28T21:15:24.128Z,3.10
2019-01-28T21:17:52.083Z,3.10
2019-01-28T21:20:19.916Z,3.00
2019-01-28T21:22:47.720Z,3.00
2019-01-28T21:25:16.831Z,3.00
2019-01-28T21:27:44.673Z,3.00
2019-01-28T21:30:14.360Z,3.00
2019-01-28T21:32:42.234Z,3.00
2019-01-28T21:35:10.136Z,3.00
2019-01-28T21:37:43.306Z,3.10
2019-01-28T21:40:11.425Z,3.10
2019-01-28T21:42:39.439Z,3.10
2019-01-28T21:45:08.124Z,3.10
2019-01-28T21:47:35.901Z,3.10
2019-01-28T21:50:04.513Z,3.10
2019-01-28T21:52:32.372Z,3.10
2019-01-28T21:55:00.262Z,3.20
2019-01-28T21:57:28.192Z,3.10
2019-01-28T21:59:55.993Z,3.20
2019-01-28T22:02:23.859Z,3.20
2019-01-28T22:04:51.712Z,3.10
2019-01-28T22:07:19.510Z,3.10
2019-01-28T22:09:47.343Z,3.00
2019-01-28T22:12:15.147Z,3.00
2019-01-28T22:14:42.969Z,3.00
2019-01-28T22:17:10.836Z,2.90
2019-01-28T22:19:38.823Z,3.00
2019-01-28T22:22:06.685Z,3.00
2019-01-28T22:24:34.556Z,3.00
2019-01-28T22:27:02.425Z,3.00
2019-01-28T22:29:30.210Z,3.00
2019-01-28T22:31:58.021Z,3.00
2019-01-28T22:34:26.091Z,3.00
2019-01-28T22:36:53.912Z,2.90
2019-01-28T22:39:21.761Z,2.90
2019-01-28T22:41:49.640Z,2.90
2019-01-28T22:44:18.068Z,2.90
2019-01-28T22:46:45.901Z,2.90
2019-01-28T22:49:13.723Z,2.90
2019-01-28T22:51:41.610Z,2.90
2019-01-28T22:54:09.475Z,3.00
2019-01-28T22:56:37.330Z,2.90
2019-01-28T22:59:05.464Z,2.90
2019-01-28T23:01:35.344Z,2.90
2019-01-28T23:04:03.195Z,2.90
2019-01-28T23:06:31.008Z,2.90
2019-01-28T23:08:58.808Z,2.90
2019-01-28T23:11:26.958Z,2.80
2019-01-28T23:13:55.055Z,2.80
2019-01-28T23:16:22.979Z,2.80
2019-01-28T23:18:50.798Z,2.70
2019-01-28T23:21:18.686Z,2.70
2019-01-28T23:23:46.544Z,2.70
2019-01-28T23:26:14.427Z,2.70
2019-01-28T23:28:42.204Z,2.70
2019-01-28T23:31:10.075Z,2.70
2019-01-28T23:33:38.051Z,2.70
2019-01-28T23:36:05.906Z,2.70
2019-01-28T23:38:33.705Z,2.70
2019-01-28T23:41:01.496Z,2.60
2019-01-28T23:43:29.299Z,2.60
2019-01-28T23:45:57.155Z,2.60
2019-01-28T23:48:25.042Z,2.60
2019-01-28T23:50:52.869Z,2.60
2019-01-28T23:53:20.768Z,2.60
2019-01-28T23:55:48.611Z,2.60
2019-01-28T23:58:16.586Z,2.60
